createdAt,value
2023-05-03T00:01:50.192Z,101567.35
2023-05-03T00:05:17.830Z,101568.16
2023-05-03T00:08:45.605Z,101573.70
2023-05-03T00:12:12.665Z,101576.18
2023-05-03T00:15:39.427Z,101581.33
2023-05-03T00:19:07.789Z,101587.85
2023-05-03T00:22:37.945Z,101583.30
2023-05-03T00:26:04.831Z,101586.89
2023-05-03T00:29:31.715Z,101582.30
2023-05-03T00:32:59.011Z,101577.55
2023-05-03T00:36:28.171Z,101573.94
2023-05-03T00:39:55.445Z,101571.52
2023-05-03T00:43:22.406Z,101570.92
2023-05-03T00:46:49.687Z,101573.14
2023-05-03T00:50:17.120Z,101572.05
2023-05-03T00:53:44.212Z,101576.74
2023-05-03T00:57:11.978Z,101570.65
2023-05-03T01:00:38.988Z,101573.59
2023-05-03T01:04:07.585Z,101574.53
2023-05-03T01:07:43.752Z,101572.16
2023-05-03T01:11:21.329Z,101574.38
2023-05-03T01:15:00.854Z,101579.15
2023-05-03T01:18:35.547Z,101585.85
2023-05-03T01:22:23.583Z,101588.70
2023-05-03T01:25:51.975Z,101596.20
2023-05-03T01:29:19.313Z,101601.95
2023-05-03T01:32:57.865Z,101604.40
2023-05-03T01:36:32.581Z,101606.02
2023-05-03T01:40:04.064Z,101608.48
2023-05-03T01:43:32.890Z,101606.90
2023-05-03T01:47:00.138Z,101608.86
2023-05-03T01:50:26.930Z,101610.79
2023-05-03T01:53:54.005Z,101606.32
2023-05-03T01:57:20.912Z,101605.45
2023-05-03T02:00:49.379Z,101605.11
2023-05-03T02:04:16.461Z,101604.80
2023-05-03T02:07:43.356Z,101605.17
2023-05-03T02:11:10.425Z,101609.52
2023-05-03T02:14:37.705Z,101608.85
2023-05-03T02:18:05.519Z,101606.65
2023-05-03T02:21:32.719Z,101604.08
2023-05-03T02:25:00.047Z,101603.08
2023-05-03T02:28:27.100Z,101603.23
2023-05-03T02:31:54.124Z,101604.45
2023-05-03T02:35:21.309Z,101609.36
2023-05-03T02:38:48.761Z,101611.20
2023-05-03T02:42:16.241Z,101606.59
2023-05-03T02:45:45.610Z,101607.08
2023-05-03T02:49:13.476Z,101604.98
2023-05-03T02:52:40.491Z,101609.60
2023-05-03T02:56:09.817Z,101612.66
2023-05-03T02:59:36.893Z,101615.89
2023-05-03T03:03:04.342Z,101620.58
2023-05-03T03:06:31.485Z,101624.42
2023-05-03T03:09:59.046Z,101623.23
2023-05-03T03:13:26.242Z,101625.48
2023-05-03T03:16:54.118Z,101623.48
2023-05-03T03:20:21.212Z,101628.04
2023-05-03T03:23:48.389Z,101632.20
2023-05-03T03:27:15.629Z,101633.80
2023-05-03T03:30:42.578Z,101637.35
2023-05-03T03:34:16.428Z,101635.16
2023-05-03T03:37:43.430Z,101635.33
2023-05-03T03:41:10.862Z,101640.80
2023-05-03T03:44:38.393Z,101639.30
2023-05-03T03:48:06.285Z,101641.20
2023-05-03T03:51:33.414Z,101640.79
2023-05-03T03:55:01.164Z,101640.12
2023-05-03T03:58:28.450Z,101646.75
2023-05-03T04:01:55.883Z,101655.67
2023-05-03T04:05:23.880Z,101658.51
2023-05-03T04:08:51.147Z,101664.02
2023-05-03T04:12:18.958Z,101665.27
2023-05-03T04:15:46.724Z,101676.42
2023-05-03T04:19:14.612Z,101681.49
2023-05-03T04:22:42.316Z,101688.08
2023-05-03T04:26:23.519Z,101688.79
2023-05-03T04:29:59.936Z,101691.15
2023-05-03T04:33:30.004Z,101699.33
2023-05-03T04:37:01.630Z,101696.83
2023-05-03T04:40:28.617Z,101704.67
2023-05-03T04:44:01.597Z,101704.10
2023-05-03T04:47:28.664Z,101707.59
2023-05-03T04:50:55.878Z,101707.45
2023-05-03T04:54:23.761Z,101711.83
2023-05-03T04:57:50.800Z,101718.52
2023-05-03T05:01:18.215Z,101715.82
2023-05-03T05:04:46.493Z,101716.77
2023-05-03T05:08:13.907Z,101724.15
2023-05-03T05:11:49.150Z,101725.04
2023-05-03T05:15:16.703Z,101727.61
2023-05-03T05:18:44.623Z,101731.98
2023-05-03T05:22:11.937Z,101737.34
2023-05-03T05:25:43.867Z,101741.50
2023-05-03T05:29:11.035Z,101750.91
2023-05-03T05:32:38.095Z,101749.05
2023-05-03T05:36:08.529Z,101752.66
2023-05-03T05:39:35.815Z,101753.79
2023-05-03T05:43:03.299Z,101746.41
2023-05-03T05:46:31.286Z,101748.77
2023-05-03T05:49:59.419Z,101749.71
2023-05-03T05:53:27.429Z,101748.85
2023-05-03T05:56:58.698Z,101754.42
2023-05-03T06:00:27.106Z,101755.45
2023-05-03T06:03:55.601Z,101766.02
2023-05-03T06:07:25.093Z,101767.96
2023-05-03T06:10:53.286Z,101767.73
2023-05-03T06:14:20.947Z,101769.08
2023-05-03T06:17:48.547Z,101773.98
2023-05-03T06:21:15.805Z,101778.71
2023-05-03T06:24:42.602Z,101776.14
2023-05-03T06:28:09.412Z,101777.96
2023-05-03T06:31:37.033Z,101778.21
2023-05-03T06:35:05.585Z,101776.29
2023-05-03T06:38:33.196Z,101777.45
2023-05-03T06:42:00.218Z,101775.70
2023-05-03T06:45:34.465Z,101772.83
2023-05-03T06:49:01.966Z,101768.14
2023-05-03T06:52:29.250Z,101773.08
2023-05-03T06:55:56.148Z,101768.46
2023-05-03T06:59:23.192Z,101762.14
2023-05-03T07:02:50.385Z,101758.80
2023-05-03T07:06:18.476Z,101762.11
2023-05-03T07:09:45.386Z,101761.90
2023-05-03T07:13:12.403Z,101760.37
2023-05-03T07:16:39.622Z,101759.84
2023-05-03T07:20:08.424Z,101759.48
2023-05-03T07:23:35.283Z,101763.08
2023-05-03T07:27:02.300Z,101759.02
2023-05-03T07:30:29.574Z,101759.37
2023-05-03T07:33:57.125Z,101760.83
2023-05-03T07:37:28.172Z,101764.85
2023-05-03T07:40:56.300Z,101766.61
2023-05-03T07:44:25.355Z,101772.56
2023-05-03T07:47:54.188Z,101779.98
2023-05-03T07:51:22.132Z,101774.76
2023-05-03T07:54:49.608Z,101777.39
2023-05-03T07:58:21.218Z,101778.05
2023-05-03T08:01:54.087Z,101768.95
2023-05-03T08:05:23.484Z,101771.04
2023-05-03T08:08:51.702Z,101768.17
2023-05-03T08:12:19.204Z,101771.89
2023-05-03T08:15:50.776Z,101770.05
2023-05-03T08:19:18.653Z,101771.40
2023-05-03T08:22:48.042Z,101769.11
2023-05-03T08:26:16.476Z,101773.16
2023-05-03T08:29:44.901Z,101774.95
2023-05-03T08:33:12.259Z,101774.73
2023-05-03T08:36:41.037Z,101772.33
2023-05-03T08:40:14.734Z,101770.52
2023-05-03T08:43:53.442Z,101773.14
2023-05-03T08:47:22.202Z,101778.20
2023-05-03T08:50:51.752Z,101779.44
2023-05-03T08:54:20.797Z,101781.60
2023-05-03T08:57:50.163Z,101776.78
2023-05-03T09:01:17.669Z,101774.95
2023-05-03T09:04:47.538Z,101774.05
2023-05-03T09:08:14.958Z,101770.90
2023-05-03T09:11:43.077Z,101768.34
2023-05-03T09:15:22.756Z,101763.02
2023-05-03T09:19:01.275Z,101770.52
2023-05-03T09:22:32.840Z,101773.47
2023-05-03T09:26:01.322Z,101775.29
2023-05-03T09:29:34.206Z,101773.30
2023-05-03T09:33:01.292Z,101767.48
2023-05-03T09:36:30.280Z,101761.71
2023-05-03T09:40:10.525Z,101758.72
2023-05-03T09:43:50.684Z,101758.61
2023-05-03T09:47:19.854Z,101756.45
2023-05-03T09:50:47.068Z,101760.91
2023-05-03T09:54:17.042Z,101767.36
2023-05-03T09:57:48.110Z,101771.02
2023-05-03T10:01:18.009Z,101771.08
2023-05-03T10:04:53.294Z,101767.70
2023-05-03T10:08:27.983Z,101762.52
2023-05-03T10:11:58.955Z,101761.39
2023-05-03T10:15:28.708Z,101752.51
2023-05-03T10:19:01.569Z,101747.52
2023-05-03T10:22:28.737Z,101759.09
2023-05-03T10:26:17.537Z,101749.42
2023-05-03T10:29:58.134Z,101751.90
2023-05-03T10:33:36.228Z,101753.55
2023-05-03T10:37:09.739Z,101750.40
2023-05-03T10:40:46.434Z,101752.05
2023-05-03T10:44:28.353Z,101753.69
2023-05-03T10:48:23.711Z,101750.19
2023-05-03T10:51:52.013Z,101743.27
2023-05-03T10:55:25.168Z,101741.96
2023-05-03T10:58:56.423Z,101747.96
2023-05-03T11:02:33.463Z,101741.13
2023-05-03T11:06:00.578Z,101740.69
2023-05-03T11:09:35.171Z,101744.04
2023-05-03T11:13:02.233Z,101751.45
2023-05-03T11:16:29.737Z,101753.89
2023-05-03T11:19:56.607Z,101748.41
2023-05-03T11:23:28.967Z,101749.85
2023-05-03T11:26:55.981Z,101751.56
2023-05-03T11:30:22.971Z,101751.30
2023-05-03T11:33:50.364Z,101752.01
2023-05-03T11:37:18.943Z,101747.77
2023-05-03T11:40:46.218Z,101744.55
2023-05-03T11:44:17.492Z,101739.73
2023-05-03T11:47:45.078Z,101740.80
2023-05-03T11:51:14.033Z,101739.07
2023-05-03T11:54:41.445Z,101740.38
2023-05-03T11:58:13.698Z,101745.16
2023-05-03T12:01:40.779Z,101748.95
2023-05-03T12:05:10.366Z,101744.12
2023-05-03T12:08:41.164Z,101741.16
2023-05-03T12:12:11.244Z,101742.52
2023-05-03T12:15:43.799Z,101741.11
2023-05-03T12:19:09.398Z,101734.16
2023-05-03T12:22:37.197Z,101734.72
2023-05-03T12:26:05.431Z,101739.26
2023-05-03T12:29:35.192Z,101736.01
2023-05-03T12:33:04.874Z,101741.21
2023-05-03T12:36:36.896Z,101736.06
2023-05-03T12:43:38.483Z,101733.91
2023-05-03T12:47:09.557Z,101724.86
2023-05-03T12:50:38.548Z,101724.38
2023-05-03T12:54:10.215Z,101725.09
2023-05-03T12:57:38.170Z,101729.23
2023-05-03T13:01:37.233Z,101730.52
2023-05-03T13:04:58.798Z,101733.95
2023-05-03T13:08:33.835Z,101730.39
2023-05-03T13:12:02.425Z,101724.05
2023-05-03T13:15:29.861Z,101716.53
2023-05-03T13:18:56.868Z,101716.83
2023-05-03T13:22:24.124Z,101711.77
2023-05-03T13:25:54.240Z,101707.76
2023-05-03T13:29:22.212Z,101712.80
2023-05-03T13:32:49.365Z,101714.81
2023-05-03T13:36:16.749Z,101715.21
2023-05-03T13:39:43.699Z,101711.28
2023-05-03T13:43:11.388Z,101708.54
2023-05-03T13:46:40.816Z,101703.73
2023-05-03T13:50:10.012Z,101703.23
2023-05-03T13:53:36.862Z,101699.05
2023-05-03T13:57:04.164Z,101697.56
2023-05-03T14:00:32.369Z,101691.39
2023-05-03T14:03:59.890Z,101689.86
2023-05-03T14:07:26.824Z,101681.95
2023-05-03T14:10:54.221Z,101683.94
2023-05-03T14:14:21.190Z,101688.73
2023-05-03T14:17:50.946Z,101687.74
2023-05-03T14:21:18.675Z,101684.18
2023-05-03T14:24:45.719Z,101683.45
2023-05-03T14:28:12.600Z,101685.52
2023-05-03T14:31:39.703Z,101680.15
2023-05-03T14:35:07.593Z,101675.64
2023-05-03T14:38:34.699Z,101676.63
2023-05-03T14:42:03.284Z,101672.66
2023-05-03T14:45:30.361Z,101673.58
2023-05-03T14:48:57.323Z,101670.58
2023-05-03T14:52:24.833Z,101666.89
2023-05-03T14:55:53.813Z,101668.88
2023-05-03T14:59:21.100Z,101663.59
2023-05-03T15:02:48.692Z,101664.67
2023-05-03T15:06:16.773Z,101663.80
2023-05-03T15:09:44.878Z,101668.04
2023-05-03T15:13:12.043Z,101664.48
2023-05-03T15:16:39.378Z,101662.02
2023-05-03T15:20:09.838Z,101661.14
2023-05-03T15:23:36.889Z,101661.16
2023-05-03T15:27:04.704Z,101660.72
2023-05-03T15:30:31.748Z,101660.36
2023-05-03T15:34:00.028Z,101660.22
2023-05-03T15:37:37.557Z,101663.91
2023-05-03T15:41:04.813Z,101664.55
2023-05-03T15:44:31.997Z,101664.31
2023-05-03T15:47:59.011Z,101659.23
2023-05-03T15:51:28.009Z,101658.79
2023-05-03T15:54:56.238Z,101661.34
2023-05-03T15:58:23.114Z,101660.65
2023-05-03T16:01:51.193Z,101655.51
2023-05-03T16:05:18.918Z,101653.73
2023-05-03T16:08:46.037Z,101655.78
2023-05-03T16:12:12.823Z,101657.15
2023-05-03T16:15:39.828Z,101657.33
2023-05-03T16:19:08.803Z,101653.95
2023-05-03T16:22:37.194Z,101653.84
2023-05-03T16:26:14.694Z,101655.95
2023-05-03T16:29:41.727Z,101656.04
2023-05-03T16:33:08.762Z,101661.98
2023-05-03T16:36:42.463Z,101660.63
2023-05-03T16:40:11.693Z,101654.52
2023-05-03T16:43:39.620Z,101656.86
2023-05-03T16:47:07.318Z,101657.61
2023-05-03T16:50:34.462Z,101652.60
2023-05-03T16:54:04.313Z,101649.09
2023-05-03T16:57:32.830Z,101648.76
2023-05-03T17:01:00.270Z,101647.60
2023-05-03T17:04:28.289Z,101645.94
2023-05-03T17:07:55.382Z,101648.52
2023-05-03T17:11:23.738Z,101646.96
2023-05-03T17:14:51.819Z,101653.55
2023-05-03T17:18:19.388Z,101650.59
2023-05-03T17:21:47.905Z,101652.90
2023-05-03T17:25:15.501Z,101654.48
2023-05-03T17:28:44.593Z,101651.66
2023-05-03T17:32:11.601Z,101653.17
2023-05-03T17:35:38.597Z,101650.05
2023-05-03T17:39:06.235Z,101650.08
2023-05-03T17:42:34.198Z,101650.98
2023-05-03T17:46:11.025Z,101653.81
2023-05-03T17:49:39.287Z,101659.08
2023-05-03T17:53:07.180Z,101659.90
2023-05-03T17:56:34.366Z,101651.06
2023-05-03T18:00:02.890Z,101656.97
2023-05-03T18:03:34.071Z,101652.17
2023-05-03T18:07:01.553Z,101654.20
2023-05-03T18:10:29.501Z,101655.14
2023-05-03T18:13:57.552Z,101654.17
2023-05-03T18:17:26.419Z,101660.56
2023-05-03T18:21:01.654Z,101660.80
2023-05-03T18:24:29.609Z,101665.89
2023-05-03T18:27:58.204Z,101669.27
2023-05-03T18:31:25.822Z,101670.52
2023-05-03T18:34:53.218Z,101675.98
2023-05-03T18:38:21.930Z,101673.70
2023-05-03T18:41:50.135Z,101673.46
2023-05-03T18:45:19.583Z,101668.55
2023-05-03T18:48:47.667Z,101672.36
2023-05-03T18:52:14.975Z,101671.42
2023-05-03T18:55:43.075Z,101674.77
2023-05-03T18:59:11.199Z,101670.73
2023-05-03T19:02:38.272Z,101671.55
2023-05-03T19:06:07.515Z,101677.61
2023-05-03T19:09:40.317Z,101678.96
2023-05-03T19:13:07.876Z,101684.89
2023-05-03T19:16:40.893Z,101689.73
2023-05-03T19:20:12.041Z,101690.39
2023-05-03T19:23:39.921Z,101690.64
2023-05-03T19:27:07.336Z,101692.85
2023-05-03T19:30:34.577Z,101689.67
2023-05-03T19:34:01.443Z,101690.31
2023-05-03T19:37:28.147Z,101693.30
2023-05-03T19:41:05.978Z,101694.94
2023-05-03T19:44:33.516Z,101694.99
2023-05-03T19:48:00.598Z,101696.67
2023-05-03T19:51:27.984Z,101693.55
2023-05-03T19:54:56.362Z,101691.85
2023-05-03T19:58:23.331Z,101688.93
2023-05-03T20:01:50.481Z,101685.98
2023-05-03T20:05:17.837Z,101689.09
2023-05-03T20:08:44.785Z,101694.59
2023-05-03T20:12:13.370Z,101696.73
2023-05-03T20:15:40.221Z,101696.99
2023-05-03T20:19:07.079Z,101699.80
2023-05-03T20:22:33.822Z,101701.52
2023-05-03T20:26:01.480Z,101701.13
2023-05-03T20:29:28.418Z,101697.81
2023-05-03T20:32:55.368Z,101698.70
2023-05-03T20:36:22.644Z,101703.17
2023-05-03T20:39:49.558Z,101702.41
2023-05-03T20:43:17.471Z,101705.84
2023-05-03T20:46:45.518Z,101707.67
2023-05-03T20:50:13.299Z,101707.59
2023-05-03T20:53:40.625Z,101712.34
2023-05-03T20:57:08.714Z,101717.94
2023-05-03T21:00:35.729Z,101717.71
2023-05-03T21:04:04.103Z,101716.02
2023-05-03T21:07:31.278Z,101713.15
2023-05-03T21:10:58.330Z,101712.46
2023-05-03T21:14:25.286Z,101716.84
2023-05-03T21:17:52.270Z,101717.64
2023-05-03T21:21:19.471Z,101711.05
2023-05-03T21:24:46.867Z,101715.03
2023-05-03T21:28:13.986Z,101716.14
2023-05-03T21:31:40.909Z,101715.14
2023-05-03T21:35:10.309Z,101709.16
2023-05-03T21:38:37.347Z,101708.99
2023-05-03T21:42:07.685Z,101707.04
2023-05-03T21:45:34.550Z,101705.52
2023-05-03T21:49:01.408Z,101705.04
2023-05-03T21:52:28.239Z,101711.39
2023-05-03T21:55:57.948Z,101711.84
2023-05-03T21:59:24.752Z,101717.66
2023-05-03T22:02:51.979Z,101715.92
2023-05-03T22:06:19.180Z,101714.48
2023-05-03T22:09:48.841Z,101713.05
2023-05-03T22:13:16.041Z,101708.92
2023-05-03T22:16:43.355Z,101708.23
2023-05-03T22:20:12.471Z,101711.06
2023-05-03T22:23:39.513Z,101709.31
2023-05-03T22:27:06.594Z,101710.80
2023-05-03T22:30:33.559Z,101711.56
2023-05-03T22:34:00.727Z,101710.02
2023-05-03T22:37:27.870Z,101708.61
2023-05-03T22:40:54.620Z,101707.05
2023-05-03T22:44:21.648Z,101706.36
2023-05-03T22:47:48.744Z,101707.61
2023-05-03T22:51:15.729Z,101709.90
2023-05-03T22:54:42.742Z,101707.30
2023-05-03T22:58:09.622Z,101707.30
2023-05-03T23:01:37.704Z,101705.41
2023-05-03T23:05:04.854Z,101706.92
2023-05-03T23:08:32.168Z,101705.07
2023-05-03T23:12:00.563Z,101702.50
2023-05-03T23:15:29.428Z,101699.91
2023-05-03T23:18:56.397Z,101698.32
2023-05-03T23:22:23.478Z,101693.46
2023-05-03T23:25:50.615Z,101694.86
2023-05-03T23:29:18.097Z,101692.23
2023-05-03T23:32:46.536Z,101692.00
2023-05-03T23:36:14.251Z,101686.38
2023-05-03T23:39:45.823Z,101682.44
2023-05-03T23:43:12.652Z,101681.00
2023-05-03T23:46:39.896Z,101678.15
2023-05-03T23:50:08.810Z,101671.60
2023-05-03T23:53:35.867Z,101679.97
2023-05-03T23:57:02.829Z,101677.39
